createdAt,value
2023-05-07T00:03:35.464Z,3.60
2023-05-07T00:06:04.835Z,3.20
2023-05-07T00:08:36.305Z,3.20
2023-05-07T00:11:04.625Z,3.20
2023-05-07T00:13:33.373Z,3.80
2023-05-07T00:16:05.160Z,3.20
2023-05-07T00:18:33.904Z,3.20
2023-05-07T00:21:04.757Z,3.40
2023-05-07T00:23:33.402Z,3.00
2023-05-07T00:26:01.389Z,2.60
2023-05-07T00:28:29.498Z,3.00
2023-05-07T00:30:57.721Z,2.40
2023-05-07T00:33:25.880Z,3.00
2023-05-07T00:35:54.737Z,3.00
2023-05-07T00:38:23.088Z,2.70
2023-05-07T00:40:51.131Z,2.90
2023-05-07T00:43:21.679Z,3.00
2023-05-07T00:45:50.072Z,3.20
2023-05-07T00:48:19.896Z,3.10
2023-05-07T00:50:49.374Z,3.50
2023-05-07T00:53:18.580Z,3.20
2023-05-07T00:55:47.414Z,2.90
2023-05-07T00:58:16.156Z,3.00
2023-05-07T01:00:45.116Z,2.80
2023-05-07T01:03:15.014Z,2.40
2023-05-07T01:05:47.179Z,2.60
2023-05-07T01:08:17.840Z,3.00
2023-05-07T01:10:47.722Z,2.60
2023-05-07T01:13:17.247Z,2.50
2023-05-07T01:15:45.506Z,2.60
2023-05-07T01:18:15.088Z,2.40
2023-05-07T01:20:43.806Z,2.60
2023-05-07T01:23:13.646Z,2.50
2023-05-07T01:25:43.074Z,2.50
2023-05-07T01:28:12.111Z,2.60
2023-05-07T01:30:46.246Z,2.30
2023-05-07T01:33:19.944Z,2.30
2023-05-07T01:35:54.656Z,2.30
2023-05-07T01:38:24.667Z,2.20
2023-05-07T01:40:53.862Z,2.30
2023-05-07T01:43:23.035Z,2.30
2023-05-07T01:45:51.264Z,2.00
2023-05-07T01:48:21.079Z,2.40
2023-05-07T01:50:50.546Z,2.00
2023-05-07T01:53:18.672Z,2.50
2023-05-07T01:55:46.893Z,1.80
2023-05-07T01:58:17.015Z,2.20
2023-05-07T02:00:45.199Z,2.30
2023-05-07T02:03:16.603Z,2.60
2023-05-07T02:05:45.612Z,2.20
2023-05-07T02:08:14.880Z,1.80
2023-05-07T02:10:43.372Z,2.70
2023-05-07T02:13:12.196Z,2.10
2023-05-07T02:15:41.424Z,2.30
2023-05-07T02:18:09.710Z,2.70
2023-05-07T02:20:38.157Z,2.60
2023-05-07T02:23:07.245Z,1.90
2023-05-07T02:25:36.423Z,2.00
2023-05-07T02:28:05.492Z,2.50
2023-05-07T02:30:33.974Z,2.40
2023-05-07T02:33:02.222Z,2.20
2023-05-07T02:35:31.306Z,2.00
2023-05-07T02:37:59.831Z,2.00
2023-05-07T02:40:28.640Z,1.90
2023-05-07T02:42:56.937Z,2.10
2023-05-07T02:45:25.702Z,1.80
2023-05-07T02:47:53.962Z,1.50
2023-05-07T02:50:23.145Z,1.80
2023-05-07T02:52:51.175Z,1.70
2023-05-07T02:55:19.832Z,1.80
2023-05-07T02:57:48.622Z,1.80
2023-05-07T03:00:19.382Z,2.10
2023-05-07T03:02:48.204Z,1.50
2023-05-07T03:05:17.611Z,1.90
2023-05-07T03:07:46.266Z,2.00
2023-05-07T03:10:14.441Z,1.80
2023-05-07T03:12:43.095Z,2.20
2023-05-07T03:15:12.029Z,1.90
2023-05-07T03:17:40.297Z,2.00
2023-05-07T03:20:11.116Z,2.20
2023-05-07T03:22:40.529Z,2.40
2023-05-07T03:25:10.812Z,2.60
2023-05-07T03:27:40.149Z,3.70
2023-05-07T03:30:10.544Z,3.00
2023-05-07T03:32:39.474Z,2.50
2023-05-07T03:35:09.196Z,2.50
2023-05-07T03:37:39.746Z,2.40
2023-05-07T03:40:12.341Z,2.40
2023-05-07T03:42:40.928Z,2.30
2023-05-07T03:45:10.643Z,2.80
2023-05-07T03:47:39.207Z,3.00
2023-05-07T03:50:08.336Z,2.50
2023-05-07T03:52:37.199Z,2.70
2023-05-07T03:55:07.030Z,2.50
2023-05-07T03:57:35.372Z,3.20
2023-05-07T04:00:04.593Z,2.50
2023-05-07T04:02:34.548Z,2.30
2023-05-07T04:05:03.546Z,2.80
2023-05-07T04:07:32.901Z,3.20
2023-05-07T04:10:02.636Z,3.70
2023-05-07T04:12:31.202Z,3.00
2023-05-07T04:14:59.317Z,3.20
2023-05-07T04:17:27.574Z,3.20
2023-05-07T04:19:55.831Z,3.30
2023-05-07T04:22:24.801Z,3.70
2023-05-07T04:24:53.002Z,3.70
2023-05-07T04:27:22.596Z,3.50
2023-05-07T04:29:50.885Z,4.00
2023-05-07T04:32:19.411Z,3.70
2023-05-07T04:34:49.471Z,4.20
2023-05-07T04:37:18.928Z,3.40
2023-05-07T04:39:47.360Z,3.00
2023-05-07T04:42:17.609Z,3.20
2023-05-07T04:44:46.707Z,3.00
2023-05-07T04:47:15.968Z,3.10
2023-05-07T04:49:45.672Z,2.90
2023-05-07T04:52:14.355Z,3.30
2023-05-07T04:54:42.588Z,3.10
2023-05-07T04:57:11.123Z,2.80
2023-05-07T04:59:41.455Z,2.80
2023-05-07T05:02:11.269Z,3.10
2023-05-07T05:04:39.695Z,3.10
2023-05-07T05:07:10.000Z,3.10
2023-05-07T05:09:39.016Z,3.40
2023-05-07T05:12:07.621Z,3.50
2023-05-07T05:14:37.069Z,3.90
2023-05-07T05:17:06.184Z,3.40
2023-05-07T05:19:35.302Z,3.50
2023-05-07T05:22:06.294Z,3.10
2023-05-07T05:24:35.768Z,3.30
2023-05-07T05:27:04.544Z,3.10
2023-05-07T05:29:33.072Z,3.60
2023-05-07T05:32:02.901Z,2.90
2023-05-07T05:34:31.572Z,3.50
2023-05-07T05:37:00.817Z,3.00
2023-05-07T05:39:28.998Z,2.90
2023-05-07T05:41:57.950Z,3.10
2023-05-07T05:44:27.424Z,3.10
2023-05-07T05:46:56.393Z,3.50
2023-05-07T05:49:25.080Z,3.20
2023-05-07T05:51:54.021Z,3.60
2023-05-07T05:54:22.782Z,3.00
2023-05-07T05:56:51.183Z,3.10
2023-05-07T05:59:20.048Z,3.90
2023-05-07T06:01:48.337Z,3.60
2023-05-07T06:04:17.391Z,3.20
2023-05-07T06:06:47.302Z,2.90
2023-05-07T06:09:17.454Z,3.20
2023-05-07T06:11:47.455Z,3.30
2023-05-07T06:14:16.194Z,3.70
2023-05-07T06:16:45.367Z,4.00
2023-05-07T06:19:14.607Z,4.20
2023-05-07T06:21:43.542Z,4.80
2023-05-07T06:24:12.075Z,4.30
2023-05-07T06:26:41.270Z,3.90
2023-05-07T06:29:09.422Z,3.80
2023-05-07T06:31:38.305Z,3.70
2023-05-07T06:34:06.951Z,3.40
2023-05-07T06:36:36.261Z,3.20
2023-05-07T06:39:05.134Z,3.40
2023-05-07T06:41:34.501Z,4.20
2023-05-07T06:44:04.759Z,4.30
2023-05-07T06:46:33.391Z,4.50
2023-05-07T06:49:01.946Z,5.40
2023-05-07T06:51:30.588Z,4.80
2023-05-07T06:53:58.769Z,4.90
2023-05-07T06:56:27.567Z,5.70
2023-05-07T06:58:55.696Z,5.00
2023-05-07T07:01:25.280Z,5.20
2023-05-07T07:03:54.150Z,6.00
2023-05-07T07:06:22.753Z,4.60
2023-05-07T07:08:51.517Z,5.80
2023-05-07T07:11:19.978Z,6.50
2023-05-07T07:13:48.613Z,5.90
2023-05-07T07:16:18.296Z,5.20
2023-05-07T07:18:46.960Z,5.70
2023-05-07T07:21:15.304Z,6.10
2023-05-07T07:23:43.891Z,4.60
2023-05-07T07:26:12.470Z,5.00
2023-05-07T07:28:48.216Z,5.00
2023-05-07T07:31:16.712Z,5.10
2023-05-07T07:33:45.430Z,5.60
2023-05-07T07:36:13.872Z,5.70
2023-05-07T07:38:42.386Z,5.00
2023-05-07T07:41:10.437Z,5.10
2023-05-07T07:43:39.029Z,4.40
2023-05-07T07:46:07.798Z,4.60
2023-05-07T07:48:36.884Z,4.70
2023-05-07T07:51:05.631Z,4.70
2023-05-07T07:53:35.339Z,4.50
2023-05-07T07:56:05.843Z,4.60
2023-05-07T07:58:35.271Z,4.30
2023-05-07T08:01:04.039Z,4.80
2023-05-07T08:03:32.878Z,4.80
2023-05-07T08:06:01.205Z,5.30
2023-05-07T08:08:31.838Z,4.60
2023-05-07T08:11:01.019Z,4.40
2023-05-07T08:13:29.384Z,4.10
2023-05-07T08:15:58.347Z,4.50
2023-05-07T08:18:28.253Z,4.40
2023-05-07T08:20:58.095Z,4.70
2023-05-07T08:23:31.479Z,4.10
2023-05-07T08:26:00.416Z,4.60
2023-05-07T08:28:28.738Z,4.30
2023-05-07T08:30:56.899Z,4.20
2023-05-07T08:33:25.087Z,4.60
2023-05-07T08:35:53.890Z,3.90
2023-05-07T08:38:21.890Z,4.00
2023-05-07T08:40:51.358Z,4.20
2023-05-07T08:43:20.786Z,3.90
2023-05-07T08:45:54.628Z,3.70
2023-05-07T08:48:26.732Z,3.50
2023-05-07T08:50:55.267Z,4.30
2023-05-07T08:53:24.928Z,4.10
2023-05-07T08:55:54.640Z,3.40
2023-05-07T08:58:23.405Z,3.70
2023-05-07T09:00:54.001Z,3.70
2023-05-07T09:03:23.958Z,3.80
2023-05-07T09:05:52.679Z,4.00
2023-05-07T09:08:28.355Z,4.20
2023-05-07T09:10:59.136Z,3.80
2023-05-07T09:13:29.330Z,4.10
2023-05-07T09:15:58.106Z,4.80
2023-05-07T09:18:30.210Z,3.60
2023-05-07T09:20:58.771Z,4.00
2023-05-07T09:23:28.016Z,3.50
2023-05-07T09:26:02.543Z,3.90
2023-05-07T09:28:30.793Z,3.70
2023-05-07T09:30:59.696Z,3.90
2023-05-07T09:33:29.775Z,4.00
2023-05-07T09:35:58.293Z,4.00
2023-05-07T09:38:26.945Z,3.40
2023-05-07T09:41:07.870Z,3.50
2023-05-07T09:43:38.247Z,3.70
2023-05-07T09:46:16.817Z,3.40
2023-05-07T09:48:46.977Z,3.50
2023-05-07T09:51:52.280Z,3.30
2023-05-07T09:54:20.606Z,3.30
2023-05-07T09:56:54.528Z,3.70
2023-05-07T09:59:23.794Z,3.10
2023-05-07T10:01:57.868Z,3.40
2023-05-07T10:04:27.231Z,3.10
2023-05-07T10:06:55.905Z,4.40
2023-05-07T10:09:25.013Z,2.90
2023-05-07T10:11:53.681Z,3.10
2023-05-07T10:14:22.723Z,2.90
2023-05-07T10:16:54.792Z,2.90
2023-05-07T10:19:23.887Z,3.10
2023-05-07T10:21:57.826Z,3.30
2023-05-07T10:24:31.913Z,2.90
2023-05-07T10:27:01.955Z,2.90
2023-05-07T10:29:55.341Z,2.60
2023-05-07T10:32:55.158Z,3.50
2023-05-07T10:35:30.930Z,2.90
2023-05-07T10:37:59.588Z,2.70
2023-05-07T10:40:27.864Z,2.70
2023-05-07T10:43:00.700Z,3.00
2023-05-07T10:45:30.045Z,3.10
2023-05-07T10:50:49.139Z,2.20
2023-05-07T10:53:25.366Z,2.50
2023-05-07T10:56:19.255Z,2.90
2023-05-07T10:58:47.314Z,3.10
2023-05-07T11:01:15.573Z,2.50
2023-05-07T11:04:14.075Z,2.40
2023-05-07T11:06:42.481Z,2.50
2023-05-07T11:09:11.457Z,2.50
2023-05-07T11:11:48.198Z,2.10
2023-05-07T11:14:42.409Z,2.70
2023-05-07T11:17:13.875Z,2.70
2023-05-07T11:19:56.957Z,2.90
2023-05-07T11:22:38.784Z,2.60
2023-05-07T11:25:07.969Z,2.70
2023-05-07T11:27:37.047Z,1.90
2023-05-07T11:30:05.751Z,2.70
2023-05-07T11:32:34.975Z,2.10
2023-05-07T11:35:03.873Z,2.00
2023-05-07T11:37:31.999Z,2.10
2023-05-07T11:40:07.877Z,1.70
2023-05-07T11:42:39.165Z,1.90
2023-05-07T11:45:08.698Z,2.00
2023-05-07T11:47:36.814Z,1.80
2023-05-07T11:50:09.511Z,1.70
2023-05-07T11:52:37.789Z,1.60
2023-05-07T11:55:09.425Z,2.40
2023-05-07T11:57:37.673Z,2.20
2023-05-07T12:00:08.529Z,2.10
2023-05-07T12:02:36.773Z,1.90
2023-05-07T12:05:06.283Z,2.00
2023-05-07T12:07:35.649Z,1.90
2023-05-07T12:10:08.331Z,1.80
2023-05-07T12:12:40.378Z,1.90
2023-05-07T12:15:10.310Z,2.00
2023-05-07T12:17:39.337Z,1.90
2023-05-07T12:20:10.703Z,2.10
2023-05-07T12:22:39.249Z,1.80
2023-05-07T12:25:08.388Z,1.60
2023-05-07T12:27:40.315Z,1.80
2023-05-07T12:30:11.874Z,1.70
2023-05-07T12:32:40.765Z,1.60
2023-05-07T12:35:11.408Z,2.10
2023-05-07T12:37:39.717Z,1.80
2023-05-07T12:40:11.936Z,1.60
2023-05-07T12:42:41.800Z,1.60
2023-05-07T12:45:15.026Z,1.50
2023-05-07T12:47:47.766Z,1.50
2023-05-07T12:50:17.446Z,1.70
2023-05-07T12:52:49.034Z,2.30
2023-05-07T12:55:18.629Z,1.70
2023-05-07T12:57:49.824Z,1.70
2023-05-07T13:00:19.440Z,1.70
2023-05-07T13:02:48.333Z,1.80
2023-05-07T13:05:16.520Z,1.80
2023-05-07T13:07:58.251Z,1.60
2023-05-07T13:10:29.349Z,1.70
2023-05-07T13:12:58.386Z,1.60
2023-05-07T13:15:26.917Z,1.80
2023-05-07T13:17:55.187Z,2.10
2023-05-07T13:20:23.604Z,2.30
2023-05-07T13:22:52.212Z,2.00
2023-05-07T13:25:20.377Z,2.00
2023-05-07T13:27:56.493Z,1.80
2023-05-07T13:30:31.725Z,1.90
2023-05-07T13:33:00.585Z,1.70
2023-05-07T13:35:29.290Z,1.90
2023-05-07T13:37:58.527Z,2.00
2023-05-07T13:40:26.888Z,2.10
2023-05-07T13:42:57.972Z,2.30
2023-05-07T13:45:26.728Z,3.70
2023-05-07T13:47:55.459Z,2.20
2023-05-07T13:50:23.872Z,1.70
2023-05-07T13:52:52.138Z,1.70
2023-05-07T13:55:21.787Z,1.90
2023-05-07T13:57:59.420Z,1.50
2023-05-07T14:00:28.755Z,1.80
2023-05-07T14:02:57.786Z,2.20
2023-05-07T14:05:26.394Z,1.90
2023-05-07T14:07:56.682Z,1.50
2023-05-07T14:10:25.843Z,1.80
2023-05-07T14:12:54.444Z,1.80
2023-05-07T14:15:22.685Z,1.90
2023-05-07T14:17:51.169Z,2.30
2023-05-07T14:20:19.288Z,1.70
2023-05-07T14:22:47.369Z,1.50
2023-05-07T14:25:15.787Z,1.70
2023-05-07T14:27:44.472Z,1.60
2023-05-07T14:30:12.805Z,2.20
2023-05-07T14:32:42.173Z,1.90
2023-05-07T14:35:11.082Z,1.70
2023-05-07T14:37:39.530Z,1.40
2023-05-07T14:40:08.476Z,1.50
2023-05-07T14:42:36.748Z,1.40
2023-05-07T14:45:05.380Z,1.70
2023-05-07T14:47:33.528Z,1.90
2023-05-07T14:50:02.325Z,1.50
2023-05-07T14:52:30.572Z,1.50
2023-05-07T14:54:58.766Z,1.60
2023-05-07T14:57:27.931Z,1.50
2023-05-07T14:59:56.309Z,1.70
2023-05-07T15:02:24.572Z,1.60
2023-05-07T15:04:53.580Z,1.60
2023-05-07T15:07:22.464Z,1.50
2023-05-07T15:09:51.050Z,1.30
2023-05-07T15:12:20.771Z,1.30
2023-05-07T15:14:49.083Z,1.40
2023-05-07T15:17:17.244Z,1.60
2023-05-07T15:19:45.968Z,1.40
2023-05-07T15:22:15.561Z,1.40
2023-05-07T15:24:43.769Z,1.50
2023-05-07T15:27:12.391Z,1.50
2023-05-07T15:29:40.450Z,1.50
2023-05-07T15:32:09.861Z,1.70
2023-05-07T15:34:38.780Z,1.30
2023-05-07T15:37:06.933Z,1.50
2023-05-07T15:39:35.204Z,1.70
2023-05-07T15:42:06.692Z,2.00
2023-05-07T15:44:35.929Z,1.60
2023-05-07T15:47:04.793Z,1.80
2023-05-07T15:49:33.764Z,1.70
2023-05-07T15:52:02.416Z,1.50
2023-05-07T15:54:30.828Z,1.70
2023-05-07T15:56:59.298Z,1.60
2023-05-07T15:59:28.117Z,2.20
2023-05-07T16:01:56.652Z,1.50
2023-05-07T16:04:26.923Z,1.60
2023-05-07T16:06:55.468Z,1.40
2023-05-07T16:09:23.599Z,1.60
2023-05-07T16:11:54.041Z,1.80
2023-05-07T16:14:22.832Z,1.70
2023-05-07T16:16:52.883Z,1.80
2023-05-07T16:19:22.807Z,1.70
2023-05-07T16:21:51.733Z,1.90
2023-05-07T16:24:20.491Z,2.00
2023-05-07T16:26:49.060Z,2.40
2023-05-07T16:29:17.139Z,2.50
2023-05-07T16:31:45.365Z,2.30
2023-05-07T16:34:14.212Z,2.50
2023-05-07T16:36:43.208Z,2.60
2023-05-07T16:39:11.842Z,2.40
2023-05-07T16:41:40.618Z,2.90
2023-05-07T16:44:09.202Z,2.30
2023-05-07T16:46:38.150Z,2.60
2023-05-07T16:49:07.208Z,2.30
2023-05-07T16:51:35.803Z,2.60
2023-05-07T16:54:04.150Z,2.60
2023-05-07T16:56:32.846Z,2.40
2023-05-07T16:59:02.229Z,3.00
2023-05-07T17:01:30.463Z,2.40
2023-05-07T17:03:59.348Z,2.50
2023-05-07T17:06:28.103Z,2.40
2023-05-07T17:08:56.979Z,8.90
2023-05-07T17:11:25.361Z,3.40
2023-05-07T17:13:53.832Z,2.60
2023-05-07T17:16:22.689Z,2.10
2023-05-07T17:18:51.326Z,2.40
2023-05-07T17:21:20.530Z,3.00
2023-05-07T17:23:49.511Z,2.30
2023-05-07T17:26:19.111Z,2.70
2023-05-07T17:28:48.468Z,2.20
2023-05-07T17:31:17.080Z,2.20
2023-05-07T17:33:46.810Z,2.30
2023-05-07T17:36:16.228Z,2.10
2023-05-07T17:38:44.999Z,2.20
2023-05-07T17:41:14.409Z,2.90
2023-05-07T17:43:42.706Z,2.20
2023-05-07T17:46:10.915Z,2.30
2023-05-07T17:48:40.192Z,2.30
2023-05-07T17:51:10.092Z,2.40
2023-05-07T17:53:39.738Z,2.50
2023-05-07T17:56:08.493Z,2.30
2023-05-07T17:58:42.753Z,2.90
2023-05-07T18:01:23.026Z,2.60
2023-05-07T18:03:51.956Z,2.40
2023-05-07T18:06:20.667Z,2.40
2023-05-07T18:08:49.969Z,2.30
2023-05-07T18:11:19.824Z,2.40
2023-05-07T18:13:48.321Z,2.80
2023-05-07T18:16:16.478Z,2.60
2023-05-07T18:18:44.765Z,2.40
2023-05-07T18:21:13.332Z,2.40
2023-05-07T18:23:42.248Z,2.40
2023-05-07T18:26:10.821Z,2.60
2023-05-07T18:28:38.840Z,2.80
2023-05-07T18:31:07.767Z,2.30
2023-05-07T18:33:36.116Z,2.20
2023-05-07T18:36:04.393Z,2.60
2023-05-07T18:38:33.270Z,2.50
2023-05-07T18:41:05.242Z,2.50
2023-05-07T18:43:34.365Z,2.40
2023-05-07T18:46:02.550Z,2.90
2023-05-07T18:48:32.385Z,2.70
2023-05-07T18:51:01.424Z,2.90
2023-05-07T18:53:29.504Z,3.40
2023-05-07T18:55:58.109Z,3.40
2023-05-07T18:58:26.444Z,2.70
2023-05-07T19:00:55.517Z,2.60
2023-05-07T19:03:23.643Z,3.20
2023-05-07T19:05:52.760Z,2.80
2023-05-07T19:08:20.833Z,2.60
2023-05-07T19:10:48.878Z,2.60
2023-05-07T19:13:17.526Z,3.30
2023-05-07T19:15:46.417Z,2.70
2023-05-07T19:18:14.533Z,3.10
2023-05-07T19:20:43.104Z,2.50
2023-05-07T19:23:11.252Z,3.90
2023-05-07T19:25:39.555Z,2.90
2023-05-07T19:28:07.642Z,3.30
2023-05-07T19:30:38.923Z,2.90
2023-05-07T19:33:07.923Z,2.50
2023-05-07T19:35:36.740Z,2.80
2023-05-07T19:38:05.023Z,3.20
2023-05-07T19:40:33.906Z,2.90
2023-05-07T19:43:03.928Z,3.10
2023-05-07T19:45:31.981Z,3.60
2023-05-07T19:48:00.957Z,2.70
2023-05-07T19:50:29.148Z,2.50
2023-05-07T19:52:57.189Z,2.40
2023-05-07T19:55:25.806Z,2.50
2023-05-07T19:57:54.084Z,2.50
2023-05-07T20:00:22.549Z,2.50
2023-05-07T20:02:52.127Z,2.10
2023-05-07T20:05:20.931Z,2.20
2023-05-07T20:07:49.153Z,2.30
2023-05-07T20:10:17.941Z,2.30
2023-05-07T20:12:46.543Z,2.50
2023-05-07T20:15:14.688Z,2.60
2023-05-07T20:17:43.124Z,2.70
2023-05-07T20:20:12.043Z,2.60
2023-05-07T20:22:40.330Z,2.90
2023-05-07T20:25:10.425Z,2.80
2023-05-07T20:27:38.499Z,3.20
2023-05-07T20:30:08.769Z,2.50
2023-05-07T20:32:37.402Z,2.70
2023-05-07T20:35:06.037Z,2.80
2023-05-07T20:37:34.424Z,2.80
2023-05-07T20:40:03.463Z,2.70
2023-05-07T20:42:31.552Z,2.70
2023-05-07T20:45:02.159Z,2.80
2023-05-07T20:47:33.225Z,2.60
2023-05-07T20:50:01.600Z,3.00
2023-05-07T20:52:30.226Z,2.80
2023-05-07T20:54:58.888Z,3.30
2023-05-07T20:57:27.058Z,2.40
2023-05-07T20:59:55.263Z,3.00
2023-05-07T21:02:23.716Z,2.70
2023-05-07T21:04:52.549Z,2.50
2023-05-07T21:07:20.746Z,2.40
2023-05-07T21:09:49.395Z,2.30
2023-05-07T21:12:17.485Z,3.00
2023-05-07T21:14:45.731Z,2.50
2023-05-07T21:17:13.875Z,2.20
2023-05-07T21:19:42.215Z,2.50
2023-05-07T21:22:10.551Z,2.60
2023-05-07T21:24:39.327Z,2.80
2023-05-07T21:27:07.589Z,2.60
2023-05-07T21:29:36.200Z,3.00
2023-05-07T21:32:06.571Z,2.60
2023-05-07T21:34:36.025Z,2.90
2023-05-07T21:37:10.651Z,2.70
2023-05-07T21:39:59.476Z,3.00
2023-05-07T21:42:27.838Z,2.70
2023-05-07T21:44:56.172Z,2.60
2023-05-07T21:47:24.714Z,2.70
2023-05-07T21:49:52.904Z,2.80
2023-05-07T21:52:21.030Z,3.10
2023-05-07T21:54:52.748Z,3.20
2023-05-07T21:57:21.237Z,2.80
2023-05-07T21:59:49.274Z,3.00
2023-05-07T22:02:17.822Z,2.90
2023-05-07T22:04:45.959Z,3.10
2023-05-07T22:07:14.142Z,3.00
2023-05-07T22:09:42.287Z,2.90
2023-05-07T22:12:10.953Z,2.90
2023-05-07T22:14:39.680Z,2.80
2023-05-07T22:17:08.038Z,3.20
2023-05-07T22:19:36.343Z,2.90
2023-05-07T22:22:04.557Z,2.80
2023-05-07T22:24:33.355Z,3.20
2023-05-07T22:27:01.477Z,2.90
2023-05-07T22:29:29.556Z,2.80
2023-05-07T22:31:57.815Z,2.90
2023-05-07T22:34:25.919Z,2.70
2023-05-07T22:36:54.158Z,2.30
2023-05-07T22:39:22.477Z,2.90
2023-05-07T22:41:54.162Z,2.60
2023-05-07T22:44:22.394Z,2.70
2023-05-07T22:46:50.614Z,3.00
2023-05-07T22:49:18.973Z,2.60
2023-05-07T22:51:50.500Z,2.60
2023-05-07T22:54:18.831Z,2.70
2023-05-07T22:56:47.565Z,2.50
2023-05-07T22:59:16.913Z,2.50
2023-05-07T23:01:47.442Z,3.20
2023-05-07T23:04:15.870Z,3.40
2023-05-07T23:06:44.089Z,3.20
2023-05-07T23:09:12.407Z,3.70
2023-05-07T23:11:40.853Z,3.10
2023-05-07T23:14:09.561Z,3.00
2023-05-07T23:16:37.790Z,3.60
2023-05-07T23:19:05.932Z,3.80
2023-05-07T23:21:34.163Z,3.60
2023-05-07T23:24:02.428Z,3.60
2023-05-07T23:26:31.163Z,3.90
2023-05-07T23:28:59.902Z,3.80
2023-05-07T23:31:28.659Z,3.80
2023-05-07T23:33:56.854Z,3.80
2023-05-07T23:36:25.603Z,3.60
2023-05-07T23:38:54.258Z,4.30
2023-05-07T23:41:22.549Z,5.10
2023-05-07T23:43:50.716Z,5.10
2023-05-07T23:46:18.919Z,5.40
2023-05-07T23:48:47.058Z,4.60
2023-05-07T23:51:15.304Z,4.80
2023-05-07T23:53:43.393Z,5.20
2023-05-07T23:56:11.573Z,5.10
2023-05-07T23:58:39.880Z,5.30
